createdAt,value
2018-07-30T00:00:44.618Z,24.50
2018-07-30T00:05:47.242Z,24.30
2018-07-30T00:08:17.963Z,24.30
2018-07-30T00:10:48.900Z,24.20
2018-07-30T00:13:19.657Z,24.20
2018-07-30T00:15:50.626Z,24.20
2018-07-30T00:18:21.537Z,24.10
2018-07-30T00:20:52.528Z,24.10
2018-07-30T00:23:24.532Z,24.00
2018-07-30T00:28:25.256Z,24.10
2018-07-30T00:30:55.914Z,24.10
2018-07-30T00:35:57.592Z,24.00
2018-07-30T00:38:28.971Z,24.00
2018-07-30T00:40:59.709Z,24.00
2018-07-30T00:43:30.724Z,23.90
2018-07-30T00:46:01.235Z,23.80
2018-07-30T00:48:31.919Z,23.70
2018-07-30T00:51:02.504Z,23.70
2018-07-30T00:53:33.159Z,23.70
2018-07-30T00:56:04.554Z,23.70
2018-07-30T00:58:35.918Z,23.60
2018-07-30T01:01:06.571Z,23.60
2018-07-30T01:03:37.857Z,23.60
2018-07-30T01:06:08.812Z,23.50
2018-07-30T01:11:09.672Z,23.50
2018-07-30T01:13:40.868Z,23.40
2018-07-30T01:16:11.970Z,23.40
2018-07-30T01:18:42.496Z,23.40
2018-07-30T01:21:13.060Z,23.30
2018-07-30T01:23:43.668Z,23.30
2018-07-30T01:26:19.536Z,23.30
2018-07-30T01:28:51.131Z,23.30
2018-07-30T01:31:21.621Z,23.20
2018-07-30T01:33:52.312Z,23.20
2018-07-30T01:36:22.764Z,23.20
2018-07-30T01:38:53.260Z,23.10
2018-07-30T01:41:23.806Z,23.00
2018-07-30T01:43:54.319Z,23.00
2018-07-30T01:48:56.020Z,23.00
2018-07-30T01:51:26.496Z,23.10
2018-07-30T01:53:57.167Z,23.10
2018-07-30T01:56:27.780Z,23.10
2018-07-30T01:58:58.264Z,23.20
2018-07-30T02:01:28.986Z,23.20
2018-07-30T02:04:00.485Z,23.20
2018-07-30T02:06:31.047Z,23.20
2018-07-30T02:09:01.559Z,23.20
2018-07-30T02:11:32.032Z,23.20
2018-07-30T02:14:02.611Z,23.20
2018-07-30T02:16:33.698Z,23.10
2018-07-30T02:21:35.202Z,23.10
2018-07-30T02:24:05.819Z,23.00
2018-07-30T02:26:36.425Z,23.00
2018-07-30T02:29:07.013Z,23.00
2018-07-30T02:31:37.621Z,22.90
2018-07-30T02:34:09.829Z,22.90
2018-07-30T02:36:40.359Z,22.90
2018-07-30T02:39:14.212Z,22.80
2018-07-30T02:41:44.775Z,22.80
2018-07-30T02:44:15.895Z,22.90
2018-07-30T02:46:47.165Z,22.90
2018-07-30T02:49:17.748Z,22.90
2018-07-30T02:51:48.341Z,22.80
2018-07-30T02:54:19.023Z,22.80
2018-07-30T02:56:49.496Z,22.80
2018-07-30T02:59:19.951Z,22.80
2018-07-30T03:01:50.566Z,22.70
2018-07-30T03:04:21.014Z,22.70
2018-07-30T03:06:51.615Z,22.70
2018-07-30T03:09:22.204Z,22.70
2018-07-30T03:11:53.180Z,22.70
2018-07-30T03:14:24.318Z,22.70
2018-07-30T03:16:54.841Z,22.70
2018-07-30T03:19:25.309Z,22.70
2018-07-30T03:21:55.869Z,22.70
2018-07-30T03:24:26.508Z,22.60
2018-07-30T03:26:56.928Z,22.60
2018-07-30T03:29:27.401Z,22.60
2018-07-30T03:34:29.791Z,22.40
2018-07-30T03:37:00.395Z,22.40
2018-07-30T03:39:31.047Z,22.30
2018-07-30T03:42:01.523Z,22.20
2018-07-30T03:44:32.154Z,22.10
2018-07-30T03:47:02.754Z,22.10
2018-07-30T03:49:33.453Z,22.10
2018-07-30T03:52:04.284Z,22.10
2018-07-30T03:57:05.191Z,21.90
2018-07-30T03:59:36.050Z,21.90
2018-07-30T04:04:36.829Z,21.90
2018-07-30T04:07:07.435Z,22.00
2018-07-30T04:09:38.125Z,22.00
2018-07-30T04:12:09.621Z,22.00
2018-07-30T04:14:40.159Z,22.00
2018-07-30T04:19:40.811Z,22.10
2018-07-30T04:22:11.500Z,22.10
2018-07-30T04:27:12.096Z,22.00
2018-07-30T04:29:42.631Z,22.00
2018-07-30T04:34:43.504Z,22.10
2018-07-30T04:37:15.080Z,22.10
2018-07-30T04:39:45.582Z,22.10
2018-07-30T04:42:16.174Z,22.20
2018-07-30T04:44:46.964Z,22.20
2018-07-30T04:47:17.553Z,22.20
2018-07-30T04:49:48.070Z,22.30
2018-07-30T04:52:18.470Z,22.30
2018-07-30T04:54:49.009Z,22.40
2018-07-30T04:57:19.816Z,22.40
2018-07-30T04:59:50.957Z,22.40
2018-07-30T05:02:21.512Z,22.40
2018-07-30T05:04:52.035Z,22.40
2018-07-30T05:07:22.731Z,22.50
2018-07-30T05:09:53.761Z,22.50
2018-07-30T05:12:24.262Z,22.50
2018-07-30T05:14:54.785Z,22.60
2018-07-30T05:17:25.391Z,22.70
2018-07-30T05:19:56.028Z,22.80
2018-07-30T05:22:26.954Z,22.90
2018-07-30T05:24:57.471Z,23.00
2018-07-30T05:27:28.229Z,23.10
2018-07-30T05:29:58.885Z,23.20
2018-07-30T05:32:29.624Z,23.20
2018-07-30T05:35:00.155Z,23.30
2018-07-30T05:37:32.104Z,23.40
2018-07-30T05:40:02.951Z,23.60
2018-07-30T05:42:33.647Z,23.70
2018-07-30T05:45:04.309Z,23.80
2018-07-30T05:47:34.836Z,23.90
2018-07-30T05:50:06.017Z,24.00
2018-07-30T05:52:36.959Z,24.20
2018-07-30T05:55:07.728Z,24.30
2018-07-30T05:57:38.365Z,24.40
2018-07-30T06:00:09.399Z,24.40
2018-07-30T06:02:40.340Z,24.70
2018-07-30T06:05:11.489Z,24.80
2018-07-30T06:07:42.472Z,25.00
2018-07-30T06:10:14.095Z,25.30
2018-07-30T06:12:45.593Z,25.60
2018-07-30T06:15:18.187Z,26.00
2018-07-30T06:17:49.937Z,26.30
2018-07-30T06:20:20.770Z,26.70
2018-07-30T06:22:51.545Z,27.20
2018-07-30T06:25:23.256Z,27.60
2018-07-30T06:27:55.955Z,27.80
2018-07-30T06:30:26.998Z,28.10
2018-07-30T06:32:57.664Z,28.20
2018-07-30T06:35:28.491Z,28.30
2018-07-30T06:37:59.178Z,28.40
2018-07-30T06:40:29.964Z,28.80
2018-07-30T06:43:00.440Z,29.00
2018-07-30T06:45:31.280Z,29.20
2018-07-30T06:48:01.900Z,29.40
2018-07-30T06:50:33.573Z,29.60
2018-07-30T06:53:04.258Z,29.90
2018-07-30T06:55:34.902Z,30.20
2018-07-30T06:58:05.931Z,30.30
2018-07-30T07:00:37.212Z,30.50
2018-07-30T07:03:09.075Z,30.50
2018-07-30T07:05:39.822Z,30.80
2018-07-30T07:08:10.805Z,31.00
2018-07-30T07:10:41.603Z,31.20
2018-07-30T07:13:12.637Z,31.40
2018-07-30T07:15:43.712Z,31.60
2018-07-30T07:18:14.578Z,31.60
2018-07-30T07:20:46.540Z,31.90
2018-07-30T07:23:18.029Z,31.80
2018-07-30T07:25:48.942Z,31.80
2018-07-30T07:28:21.292Z,32.00
2018-07-30T07:30:52.059Z,32.10
2018-07-30T07:33:22.772Z,32.10
2018-07-30T07:35:54.510Z,32.40
2018-07-30T07:38:25.921Z,32.30
2018-07-30T07:40:57.993Z,32.30
2018-07-30T07:43:29.349Z,32.50
2018-07-30T07:46:01.120Z,32.60
2018-07-30T07:51:05.137Z,32.70
2018-07-30T07:53:38.038Z,33.20
2018-07-30T07:58:40.452Z,32.90
2018-07-30T08:03:42.736Z,33.80
2018-07-30T08:06:14.733Z,34.20
2018-07-30T08:08:45.919Z,34.50
2018-07-30T08:11:16.849Z,34.60
2018-07-30T08:13:48.072Z,35.00
2018-07-30T08:16:20.017Z,35.10
2018-07-30T08:18:50.673Z,35.20
2018-07-30T08:21:21.685Z,35.30
2018-07-30T08:23:53.141Z,35.50
2018-07-30T08:26:25.211Z,35.50
2018-07-30T08:28:57.548Z,35.70
2018-07-30T08:31:29.527Z,35.90
2018-07-30T08:34:00.617Z,36.30
2018-07-30T08:36:31.831Z,36.40
2018-07-30T08:39:03.343Z,36.60
2018-07-30T08:41:34.094Z,36.70
2018-07-30T08:44:05.311Z,36.70
2018-07-30T08:46:36.009Z,36.80
2018-07-30T08:49:07.264Z,37.00
2018-07-30T08:51:39.011Z,37.20
2018-07-30T08:54:10.130Z,37.50
2018-07-30T08:59:11.575Z,37.60
2018-07-30T09:01:44.799Z,37.70
2018-07-30T09:04:15.924Z,37.70
2018-07-30T09:06:54.854Z,37.80
2018-07-30T09:09:29.093Z,37.80
2018-07-30T09:12:01.221Z,37.70
2018-07-30T09:14:32.270Z,37.80
2018-07-30T09:17:04.890Z,38.10
2018-07-30T09:19:36.935Z,38.20
2018-07-30T09:22:09.031Z,38.20
2018-07-30T09:24:40.534Z,38.30
2018-07-30T09:29:43.378Z,38.50
2018-07-30T09:32:14.906Z,38.60
2018-07-30T09:34:45.553Z,38.20
2018-07-30T09:37:16.923Z,38.30
2018-07-30T09:39:48.228Z,38.60
2018-07-30T09:42:19.970Z,38.80
2018-07-30T09:44:51.422Z,38.10
2018-07-30T09:47:22.797Z,38.50
2018-07-30T09:49:53.421Z,39.40
2018-07-30T09:52:24.126Z,37.70
2018-07-30T09:54:55.378Z,38.40
2018-07-30T09:57:26.185Z,38.90
2018-07-30T10:02:30.198Z,39.00
2018-07-30T10:05:01.033Z,39.00
2018-07-30T10:07:32.139Z,38.70
2018-07-30T10:12:33.729Z,39.10
2018-07-30T10:15:04.737Z,39.60
2018-07-30T10:17:38.407Z,40.20
2018-07-30T10:20:10.446Z,40.70
2018-07-30T10:22:41.784Z,40.80
2018-07-30T10:25:13.179Z,40.90
2018-07-30T10:27:44.857Z,40.50
2018-07-30T10:30:15.658Z,40.20
2018-07-30T10:32:46.706Z,40.60
2018-07-30T10:35:18.401Z,40.50
2018-07-30T10:37:49.726Z,40.20
2018-07-30T10:40:20.451Z,39.90
2018-07-30T10:42:51.499Z,40.40
2018-07-30T10:47:53.036Z,40.80
2018-07-30T10:50:23.881Z,40.40
2018-07-30T10:52:55.152Z,40.90
2018-07-30T10:55:27.132Z,41.10
2018-07-30T10:57:58.482Z,40.40
2018-07-30T11:02:59.709Z,40.90
2018-07-30T11:05:35.000Z,41.30
2018-07-30T11:08:05.880Z,41.40
2018-07-30T11:10:36.800Z,40.90
2018-07-30T11:13:08.965Z,40.70
2018-07-30T11:15:39.691Z,40.20
2018-07-30T11:20:40.717Z,41.40
2018-07-30T11:23:11.955Z,41.10
2018-07-30T11:28:13.577Z,40.80
2018-07-30T11:30:45.694Z,40.70
2018-07-30T11:33:16.849Z,41.30
2018-07-30T11:35:47.569Z,41.00
2018-07-30T11:38:18.876Z,40.90
2018-07-30T11:40:50.544Z,40.50
2018-07-30T11:43:21.217Z,41.20
2018-07-30T11:45:52.359Z,40.60
2018-07-30T11:48:23.884Z,41.10
2018-07-30T11:50:55.942Z,41.50
2018-07-30T11:53:26.881Z,41.50
2018-07-30T11:55:58.451Z,41.40
2018-07-30T11:58:29.784Z,42.00
2018-07-30T12:01:01.433Z,42.00
2018-07-30T12:03:32.294Z,42.00
2018-07-30T12:08:34.830Z,41.20
2018-07-30T12:11:05.804Z,41.30
2018-07-30T12:13:36.701Z,41.70
2018-07-30T12:16:08.496Z,41.60
2018-07-30T12:18:39.358Z,42.00
2018-07-30T12:21:10.257Z,41.80
2018-07-30T12:23:41.082Z,41.10
2018-07-30T12:26:12.920Z,40.60
2018-07-30T12:28:44.230Z,40.80
2018-07-30T12:31:19.101Z,41.10
2018-07-30T12:33:49.993Z,40.90
2018-07-30T12:36:20.924Z,40.60
2018-07-30T12:38:51.788Z,40.50
2018-07-30T12:41:23.009Z,41.30
2018-07-30T12:46:28.843Z,42.10
2018-07-30T12:49:00.478Z,42.00
2018-07-30T12:51:32.836Z,41.70
2018-07-30T12:54:05.418Z,42.10
2018-07-30T12:56:36.802Z,42.10
2018-07-30T12:59:09.526Z,41.90
2018-07-30T13:01:41.636Z,42.30
2018-07-30T13:04:13.074Z,42.50
2018-07-30T13:06:45.823Z,42.50
2018-07-30T13:09:16.824Z,42.50
2018-07-30T13:11:47.853Z,42.10
2018-07-30T13:14:18.702Z,42.30
2018-07-30T13:16:50.332Z,42.70
2018-07-30T13:19:26.498Z,42.60
2018-07-30T13:21:59.379Z,42.50
2018-07-30T13:24:30.949Z,42.50
2018-07-30T13:27:01.994Z,42.60
2018-07-30T13:29:33.708Z,42.40
2018-07-30T13:32:07.247Z,42.00
2018-07-30T13:34:38.117Z,41.80
2018-07-30T13:37:09.765Z,41.50
2018-07-30T13:39:42.492Z,41.00
2018-07-30T13:42:13.415Z,40.80
2018-07-30T13:44:44.829Z,41.20
2018-07-30T13:47:16.030Z,41.50
2018-07-30T13:49:47.964Z,41.50
2018-07-30T13:52:18.800Z,41.30
2018-07-30T13:54:49.690Z,41.20
2018-07-30T13:57:20.304Z,41.50
2018-07-30T13:59:51.410Z,41.80
2018-07-30T14:02:22.329Z,42.10
2018-07-30T14:04:52.989Z,42.20
2018-07-30T14:07:25.018Z,41.60
2018-07-30T14:09:56.571Z,41.50
2018-07-30T14:12:28.201Z,41.30
2018-07-30T14:14:59.109Z,41.40
2018-07-30T14:17:30.232Z,41.10
2018-07-30T14:20:00.968Z,41.30
2018-07-30T14:22:32.598Z,41.60
2018-07-30T14:25:03.682Z,41.80
2018-07-30T14:27:36.313Z,41.60
2018-07-30T14:30:09.481Z,41.90
2018-07-30T14:32:40.790Z,42.00
2018-07-30T14:35:13.465Z,41.90
2018-07-30T14:37:46.067Z,41.60
2018-07-30T14:40:18.090Z,41.50
2018-07-30T14:42:50.916Z,41.20
2018-07-30T14:45:25.586Z,40.80
2018-07-30T14:47:56.247Z,40.10
2018-07-30T14:50:27.038Z,39.80
2018-07-30T14:52:57.843Z,39.80
2018-07-30T14:55:28.909Z,39.90
2018-07-30T14:58:00.588Z,40.10
2018-07-30T15:03:02.323Z,39.50
2018-07-30T15:05:33.197Z,39.50
2018-07-30T15:08:04.707Z,39.20
2018-07-30T15:10:35.579Z,39.10
2018-07-30T15:13:06.256Z,38.80
2018-07-30T15:15:37.597Z,38.90
2018-07-30T15:20:40.225Z,39.00
2018-07-30T15:25:43.306Z,39.00
2018-07-30T15:28:13.926Z,39.00
2018-07-30T15:30:44.766Z,39.00
2018-07-30T15:33:16.263Z,39.00
2018-07-30T15:35:48.766Z,38.90
2018-07-30T15:38:19.734Z,39.00
2018-07-30T15:40:50.544Z,38.90
2018-07-30T15:43:21.128Z,39.00
2018-07-30T15:45:51.811Z,39.10
2018-07-30T15:48:23.256Z,39.10
2018-07-30T15:50:53.870Z,38.80
2018-07-30T15:55:57.288Z,38.70
2018-07-30T15:58:28.302Z,38.50
2018-07-30T16:00:58.976Z,38.60
2018-07-30T16:03:29.987Z,38.40
2018-07-30T16:06:00.710Z,38.20
2018-07-30T16:08:31.894Z,38.40
2018-07-30T16:11:03.742Z,38.10
2018-07-30T16:13:35.837Z,38.00
2018-07-30T16:16:06.633Z,37.60
2018-07-30T16:18:37.850Z,37.60
2018-07-30T16:21:09.396Z,37.40
2018-07-30T16:23:40.357Z,37.30
2018-07-30T16:26:16.216Z,37.30
2018-07-30T16:28:48.384Z,37.30
2018-07-30T16:31:19.485Z,37.30
2018-07-30T16:33:50.342Z,37.20
2018-07-30T16:36:21.556Z,37.20
2018-07-30T16:38:52.490Z,37.30
2018-07-30T16:41:24.034Z,37.30
2018-07-30T16:43:54.847Z,37.00
2018-07-30T16:46:26.466Z,36.80
2018-07-30T16:48:58.540Z,36.70
2018-07-30T16:51:29.914Z,36.40
2018-07-30T16:54:01.285Z,36.40
2018-07-30T16:56:35.220Z,36.50
2018-07-30T16:59:12.053Z,36.40
2018-07-30T17:01:44.256Z,36.50
2018-07-30T17:04:16.781Z,36.20
2018-07-30T17:06:49.573Z,36.20
2018-07-30T17:09:21.010Z,36.10
2018-07-30T17:11:52.186Z,35.90
2018-07-30T17:14:22.957Z,35.80
2018-07-30T17:16:53.898Z,35.70
2018-07-30T17:19:25.582Z,35.50
2018-07-30T17:21:56.685Z,35.30
2018-07-30T17:24:27.983Z,35.30
2018-07-30T17:26:58.837Z,35.10
2018-07-30T17:29:29.832Z,34.90
2018-07-30T17:32:00.638Z,34.80
2018-07-30T17:34:31.523Z,34.50
2018-07-30T17:37:03.114Z,34.40
2018-07-30T17:39:35.059Z,34.20
2018-07-30T17:44:37.368Z,34.10
2018-07-30T17:47:08.370Z,33.80
2018-07-30T17:49:39.163Z,33.50
2018-07-30T17:52:09.905Z,33.40
2018-07-30T17:54:41.629Z,33.10
2018-07-30T17:57:13.429Z,33.00
2018-07-30T17:59:44.432Z,32.90
2018-07-30T18:02:15.424Z,32.70
2018-07-30T18:07:16.951Z,32.30
2018-07-30T18:09:47.654Z,32.30
2018-07-30T18:12:18.533Z,32.10
2018-07-30T18:17:22.043Z,31.80
2018-07-30T18:19:52.988Z,31.80
2018-07-30T18:22:23.774Z,31.50
2018-07-30T18:24:55.312Z,31.30
2018-07-30T18:27:26.874Z,31.20
2018-07-30T18:29:57.678Z,31.10
2018-07-30T18:32:30.691Z,30.90
2018-07-30T18:35:01.729Z,30.80
2018-07-30T18:37:34.478Z,30.70
2018-07-30T18:40:05.991Z,30.70
2018-07-30T18:42:36.999Z,30.80
2018-07-30T18:45:09.581Z,30.90
2018-07-30T18:47:41.804Z,31.00
2018-07-30T18:50:15.895Z,30.90
2018-07-30T18:52:47.946Z,30.80
2018-07-30T18:55:21.781Z,30.70
2018-07-30T18:58:02.042Z,30.70
2018-07-30T19:00:37.092Z,30.70
2018-07-30T19:03:13.662Z,30.70
2018-07-30T19:05:52.132Z,30.60
2018-07-30T19:08:25.060Z,30.60
2018-07-30T19:10:59.944Z,30.60
2018-07-30T19:16:03.410Z,30.60
2018-07-30T19:18:35.312Z,30.50
2018-07-30T19:23:44.764Z,30.40
2018-07-30T19:26:16.669Z,30.40
2018-07-30T19:28:52.479Z,30.40
2018-07-30T19:31:24.256Z,30.30
2018-07-30T19:33:56.319Z,30.40
2018-07-30T19:36:29.199Z,30.10
2018-07-30T19:39:01.156Z,30.10
2018-07-30T19:44:02.867Z,29.90
2018-07-30T19:49:06.582Z,29.80
2018-07-30T19:51:38.242Z,29.70
2018-07-30T19:54:12.566Z,29.20
2018-07-30T19:56:45.303Z,28.80
2018-07-30T19:59:17.847Z,28.60
2018-07-30T20:01:51.989Z,28.60
2018-07-30T20:04:23.738Z,28.50
2018-07-30T20:06:57.141Z,28.50
2018-07-30T20:09:28.824Z,28.60
2018-07-30T20:12:00.844Z,28.60
2018-07-30T20:14:32.634Z,28.60
2018-07-30T20:17:04.349Z,28.60
2018-07-30T20:19:37.317Z,28.50
2018-07-30T20:22:11.103Z,28.60
2018-07-30T20:24:42.422Z,28.60
2018-07-30T20:27:13.987Z,28.50
2018-07-30T20:29:46.874Z,28.40
2018-07-30T20:32:18.682Z,28.40
2018-07-30T20:34:50.393Z,28.20
2018-07-30T20:37:22.532Z,28.10
2018-07-30T20:39:54.221Z,27.90
2018-07-30T20:42:25.792Z,27.80
2018-07-30T20:44:56.680Z,27.60
2018-07-30T20:47:27.879Z,27.40
2018-07-30T20:49:59.920Z,27.40
2018-07-30T20:52:36.221Z,27.40
2018-07-30T20:55:09.352Z,27.40
2018-07-30T20:57:41.374Z,27.50
2018-07-30T21:02:43.073Z,27.30
2018-07-30T21:05:15.125Z,27.20
2018-07-30T21:07:47.514Z,26.90
2018-07-30T21:10:19.337Z,26.70
2018-07-30T21:12:50.216Z,26.60
2018-07-30T21:15:20.937Z,26.60
2018-07-30T21:17:52.056Z,26.50
2018-07-30T21:20:22.909Z,26.50
2018-07-30T21:22:53.661Z,26.40
2018-07-30T21:25:24.500Z,26.20
2018-07-30T21:27:57.076Z,26.10
2018-07-30T21:30:27.890Z,26.10
2018-07-30T21:32:58.544Z,26.10
2018-07-30T21:35:29.802Z,26.00
2018-07-30T21:38:00.633Z,25.80
2018-07-30T21:40:31.520Z,25.80
2018-07-30T21:43:02.460Z,25.80
2018-07-30T21:45:34.029Z,25.70
2018-07-30T21:48:05.288Z,25.70
2018-07-30T21:50:36.295Z,25.60
2018-07-30T21:53:07.292Z,25.50
2018-07-30T21:55:38.213Z,25.40
2018-07-30T21:58:09.049Z,25.40
2018-07-30T22:00:39.842Z,25.30
2018-07-30T22:03:11.309Z,25.30
2018-07-30T22:05:43.668Z,25.30
2018-07-30T22:08:14.257Z,25.10
2018-07-30T22:10:44.862Z,25.10
2018-07-30T22:13:16.124Z,25.10
2018-07-30T22:15:46.869Z,25.00
2018-07-30T22:18:18.608Z,24.90
2018-07-30T22:20:49.770Z,24.80
2018-07-30T22:23:21.705Z,24.80
2018-07-30T22:25:52.685Z,24.70
2018-07-30T22:28:23.556Z,24.70
2018-07-30T22:30:54.471Z,24.60
2018-07-30T22:33:25.413Z,24.50
2018-07-30T22:35:56.458Z,24.40
2018-07-30T22:38:27.081Z,24.40
2018-07-30T22:43:29.374Z,24.40
2018-07-30T22:46:00.009Z,24.30
2018-07-30T22:48:30.724Z,24.20
2018-07-30T22:51:01.369Z,24.20
2018-07-30T22:53:32.100Z,24.20
2018-07-30T22:56:03.355Z,24.10
2018-07-30T22:58:34.993Z,24.10
2018-07-30T23:01:06.709Z,24.00
2018-07-30T23:03:37.543Z,23.90
2018-07-30T23:06:08.177Z,23.90
2018-07-30T23:08:38.851Z,23.80
2018-07-30T23:11:09.666Z,23.70
2018-07-30T23:13:40.312Z,23.70
2018-07-30T23:16:11.029Z,23.70
2018-07-30T23:18:41.723Z,23.80
2018-07-30T23:21:12.436Z,23.80
2018-07-30T23:23:43.167Z,23.60
2018-07-30T23:26:13.837Z,23.60
2018-07-30T23:28:44.928Z,23.50
2018-07-30T23:31:15.552Z,23.40
2018-07-30T23:33:46.877Z,23.40
2018-07-30T23:36:18.638Z,23.40
2018-07-30T23:38:49.450Z,23.10
2018-07-30T23:41:20.931Z,23.10
2018-07-30T23:43:52.093Z,23.00
2018-07-30T23:46:22.675Z,22.90
2018-07-30T23:48:53.415Z,22.90
2018-07-30T23:51:23.983Z,22.80
2018-07-30T23:53:54.632Z,22.80
2018-07-30T23:58:56.159Z,22.70
